Catalonia — 9HWS7 — position and weather

sailwx.info

Track history (hours):
 
Tides and Currents Weather Stations Pressure Air Temp Water Temp Dewpoint Dewpoint Depression Visibility Wind Speed Wind Dir Waves Ship Positions

Catalonia

Last reported at 2016-Jul-03 03:20 UTC. Time now 2016-Aug-26 01:29 UTC.
Position N 31°24' E 032°20'.
Warning: this ship's position is 53 days out of date.

Length 189 m; draft 11.6 m.

Type: Cargo ship. MMSI: 215929000.

Date/timePositionNaut miles runAvg speedWind from/ knotsBaromVisibWave heightAir tempDewpointWater temp
2016-Jul-03 03:20N 31°24' E 032°20'1 0.1
2016-Jul-02 22:23N 31°23' E 032°19'0 0.0
2016-Jul-02 20:32N 31°23' E 032°19'0 0.0
2016-Jul-02 19:32N 31°23' E 032°19'0 0.0
2016-Jul-02 12:32N 31°23' E 032°19'0 0.0
2016-Jul-02 11:32N 31°23' E 032°19'0 0.0
2016-Jul-02 10:26N 31°23' E 032°19'0 0.0
2016-Jul-02 09:32N 31°23' E 032°19'8410.5
2016-Jul-02 01:32N 32°26' E 031°13'2611.8
2016-Jul-01 23:19N 32°45' E 030°53'3312.0
2016-Jul-01 20:33N 33°09' E 030°25'1312.1
2016-Jul-01 19:31N 33°18' E 030°15'1212.0
2016-Jul-01 18:34N 33°27' E 030°06'1512.2
2016-Jul-01 17:18N 33°38' E 029°53'912.3
2016-Jul-01 16:33N 33°44' E 029°46'1211.9
2016-Jul-01 15:34N 33°53' E 029°36'1312.2
2016-Jul-01 14:32N 34°02' E 029°25'1211.8
2016-Jul-01 13:33N 34°11' E 029°16'1212.1
2016-Jul-01 12:32N 34°20' E 029°06'  
2016-Jun-25 08:27N 40°45' E 029°31'2 2.2
2016-Jun-25 07:32N 40°46' E 029°29'0 0.0
2016-Jun-23 20:26N 40°46' E 029°29'0 0.0
2016-Jun-23 15:20N 40°46' E 029°29'0 0.0
2016-Jun-23 04:26N 40°46' E 029°29'  
Track history (hours):
 
Tides and Currents Weather Stations Pressure Air Temp Water Temp Dewpoint Dewpoint Depression Visibility Wind Speed Wind Dir Waves Ship Positions

Catalonia

Last reported at 2016-Jul-03 03:20 UTC. Time now 2016-Aug-26 01:29 UTC.
Position N 31°24' E 032°20'.
Warning: this ship's position is 53 days out of date.

Length 189 m; draft 11.6 m.

Type: Cargo ship. MMSI: 215929000.

Date/timePositionNaut miles runAvg speedWind from/ knotsBaromVisibWave heightAir tempDewpointWater temp
2016-Jul-03 03:20N 31°24' E 032°20'1 0.1
2016-Jul-02 22:23N 31°23' E 032°19'0 0.0
2016-Jul-02 20:32N 31°23' E 032°19'0 0.0
2016-Jul-02 19:32N 31°23' E 032°19'0 0.0
2016-Jul-02 12:32N 31°23' E 032°19'0 0.0
2016-Jul-02 11:32N 31°23' E 032°19'0 0.0
2016-Jul-02 10:26N 31°23' E 032°19'0 0.0
2016-Jul-02 09:32N 31°23' E 032°19'8410.5
2016-Jul-02 01:32N 32°26' E 031°13'2611.8
2016-Jul-01 23:19N 32°45' E 030°53'3312.0
2016-Jul-01 20:33N 33°09' E 030°25'1312.1
2016-Jul-01 19:31N 33°18' E 030°15'1212.0
2016-Jul-01 18:34N 33°27' E 030°06'1512.2
2016-Jul-01 17:18N 33°38' E 029°53'912.3
2016-Jul-01 16:33N 33°44' E 029°46'1211.9
2016-Jul-01 15:34N 33°53' E 029°36'1312.2
2016-Jul-01 14:32N 34°02' E 029°25'1211.8
2016-Jul-01 13:33N 34°11' E 029°16'1212.1
2016-Jul-01 12:32N 34°20' E 029°06'  
2016-Jun-25 08:27N 40°45' E 029°31'2 2.2
2016-Jun-25 07:32N 40°46' E 029°29'0 0.0
2016-Jun-23 20:26N 40°46' E 029°29'0 0.0
2016-Jun-23 15:20N 40°46' E 029°29'0 0.0
2016-Jun-23 04:26N 40°46' E 029°29'  

Dump ship's entire track history